Terminal Aerodrome Forecast
Issued by NWS

Home | Current Version | Previous Version | Text Only | Print | Product List | Glossary On
Versions: 1 2 3 4 5 6 7 8 9 10 11 12 13 14 15 16 17
823
FTUS46 KSEW 261120
TAFHQM
TAF
KHQM 261120Z 2612/2712 25006KT 6SM BR OVC004
     FM261800 24010KT P6SM OVC010
     FM262000 24013KT P6SM BKN015
     FM262300 24013KT P6SM SCT020
     FM270200 24010KT P6SM OVC010=

USA.gov is the U.S. government's official web portal to all federal, state and local government web resources and services.